WXM80 ListenWXM80 Stop

You find our weather info also at:

UK Metoffice

WeatherCloud

Weather Underground

Northeastern Weather Network

AWEKAS

Citizen Weather Observer Program (CWOP)

HAMweather, WeatherForYou, PWS Weather


Weather Underground History page Text

Daily Summary for August 3, 2017 Units:  Both    English   Metric
« Previous Day
Next Day »
Daily Weekly Monthly Yearly Custom
  High: Low: Average:
Temperature: 85.6 °F /  29.8 °C 67.5 °F /  19.7 °C 75.6 °F /  24.2 °C
Dew Point: 75.0 °F /  23.9 °C 65.9 °F /  18.8 °C 69.8 °F /  21 °C
Humidity: 98 % 61 % 83 %
Wind Speed: 5.4 mph /  8.7 km/h - 0.8 mph /  1.3 km/h
Wind Gust: 11.5 mph /  18.5 km/h - -
Wind:- - SE
Pressure: 30.09 in /  1018.8 hPa 30.00 in /  1015.8 hPa -
Precipitation: 0.05 in /  1.27 mm    
Historical Graphs
 
 
Tabular Data for August 3, 2017
Time Temperature Dew Point Pressure Wind Wind Speed Wind Gust Humidity Rainfall Rate (Hourly)
00:02 68.0 °F /  20 °C 65.9 °F /  18.8 °C 30.05 in /  1017.5 hPa Calm     93 % 0.00 in /  0 mm
00:07 68.0 °F /  20 °C 65.9 °F /  18.8 °C 30.05 in /  1017.5 hPa Calm     93 % 0.00 in /  0 mm
00:12 68.0 °F /  20 °C 65.9 °F /  18.8 °C 30.05 in /  1017.5 hPa Calm     93 % 0.00 in /  0 mm
00:17 68.0 °F /  20 °C 66.2 °F /  19 °C 30.05 in /  1017.5 hPa Calm     94 % 0.00 in /  0 mm
00:22 68.0 °F /  20 °C 66.2 °F /  19 °C 30.05 in /  1017.5 hPa Calm     94 % 0.00 in /  0 mm
00:27 67.9 °F /  19.9 °C 66.1 °F /  18.9 °C 30.05 in /  1017.5 hPa Calm     94 % 0.00 in /  0 mm
00:32 67.9 °F /  19.9 °C 66.1 °F /  18.9 °C 30.05 in /  1017.5 hPa Calm     94 % 0.00 in /  0 mm
00:37 67.9 °F /  19.9 °C 66.1 °F /  18.9 °C 30.05 in /  1017.5 hPa Calm     94 % 0.00 in /  0 mm
00:42 67.9 °F /  19.9 °C 66.1 °F /  18.9 °C 30.05 in /  1017.5 hPa Calm     94 % 0.00 in /  0 mm
00:47 67.9 °F /  19.9 °C 66.1 °F /  18.9 °C 30.04 in /  1017.2 hPa Calm     94 % 0.00 in /  0 mm
00:52 67.9 °F /  19.9 °C 66.1 °F /  18.9 °C 30.04 in /  1017.2 hPa Calm     94 % 0.01 in /  0.25 mm
00:57 67.9 °F /  19.9 °C 66.1 °F /  18.9 °C 30.04 in /  1017.2 hPa Calm     94 % 0.01 in /  0.25 mm
01:02 67.9 °F /  19.9 °C 66.1 °F /  18.9 °C 30.04 in /  1017.2 hPa Calm     94 % 0.01 in /  0.25 mm
01:07 67.9 °F /  19.9 °C 66.1 °F /  18.9 °C 30.04 in /  1017.2 hPa Calm     94 % 0.01 in /  0.25 mm
01:12 67.9 °F /  19.9 °C 66.1 °F /  18.9 °C 30.04 in /  1017.2 hPa Calm     94 % 0.01 in /  0.25 mm
01:17 67.9 °F /  19.9 °C 66.1 °F /  18.9 °C 30.04 in /  1017.2 hPa Calm     94 % 0.01 in /  0.25 mm
01:22 67.9 °F /  19.9 °C 66.1 °F /  18.9 °C 30.04 in /  1017.2 hPa Calm     94 % 0.01 in /  0.25 mm
01:27 67.9 °F /  19.9 °C 66.1 °F /  18.9 °C 30.04 in /  1017.2 hPa Calm     94 % 0.01 in /  0.25 mm
01:32 67.9 °F /  19.9 °C 66.1 °F /  18.9 °C 30.04 in /  1017.2 hPa Calm     94 % 0.01 in /  0.25 mm
01:42 67.9 °F /  19.9 °C 66.4 °F /  19.1 °C 30.03 in /  1016.8 hPa Calm     95 % 0.01 in /  0.25 mm
01:47 67.9 °F /  19.9 °C 66.4 °F /  19.1 °C 30.03 in /  1016.8 hPa Calm     95 % 0.01 in /  0.25 mm
01:52 67.9 °F /  19.9 °C 66.4 °F /  19.1 °C 30.03 in /  1016.8 hPa Calm     95 % 0.00 in /  0 mm
01:57 67.9 °F /  19.9 °C 66.4 °F /  19.1 °C 30.03 in /  1016.8 hPa Calm     95 % 0.00 in /  0 mm
02:00 68.0 °F /  20 °C 66.5 °F /  19.2 °C 30.03 in /  1016.8 hPa Calm     95 % 0.00 in /  0 mm
02:06 68.0 °F /  20 °C 66.5 °F /  19.2 °C 30.03 in /  1016.8 hPa Calm     95 % 0.00 in /  0 mm
02:11 68.0 °F /  20 °C 66.5 °F /  19.2 °C 30.03 in /  1016.8 hPa Calm     95 % 0.00 in /  0 mm
02:16 68.0 °F /  20 °C 66.5 °F /  19.2 °C 30.03 in /  1016.8 hPa Calm     95 % 0.00 in /  0 mm
02:21 68.0 °F /  20 °C 66.5 °F /  19.2 °C 30.03 in /  1016.8 hPa Calm     95 % 0.00 in /  0 mm
02:26 68.0 °F /  20 °C 66.5 °F /  19.2 °C 30.04 in /  1017.2 hPa Calm   1.0 mph /  1.6 km/h 95 % 0.00 in /  0 mm
02:31 68.0 °F /  20 °C 66.5 °F /  19.2 °C 30.03 in /  1016.8 hPa Calm     95 % 0.00 in /  0 mm
02:36 68.0 °F /  20 °C 66.5 °F /  19.2 °C 30.04 in /  1017.2 hPa Calm     95 % 0.00 in /  0 mm
02:41 68.0 °F /  20 °C 66.5 °F /  19.2 °C 30.03 in /  1016.8 hPa Calm     95 % 0.00 in /  0 mm
02:46 68.0 °F /  20 °C 66.5 °F /  19.2 °C 30.03 in /  1016.8 hPa Calm     95 % 0.00 in /  0 mm
02:51 68.0 °F /  20 °C 66.5 °F /  19.2 °C 30.03 in /  1016.8 hPa Calm     95 % 0.00 in /  0 mm
02:56 68.0 °F /  20 °C 66.5 °F /  19.2 °C 30.03 in /  1016.8 hPa Calm     95 % 0.00 in /  0 mm
03:01 68.0 °F /  20 °C 66.5 °F /  19.2 °C 30.03 in /  1016.8 hPa Calm     95 % 0.01 in /  0.25 mm
03:06 67.9 °F /  19.9 °C 66.4 °F /  19.1 °C 30.03 in /  1016.8 hPa Calm     95 % 0.01 in /  0.25 mm
03:11 67.9 °F /  19.9 °C 66.4 °F /  19.1 °C 30.03 in /  1016.8 hPa Calm     95 % 0.01 in /  0.25 mm
03:16 67.9 °F /  19.9 °C 66.4 °F /  19.1 °C 30.03 in /  1016.8 hPa Calm     95 % 0.01 in /  0.25 mm
03:21 67.9 °F /  19.9 °C 66.4 °F /  19.1 °C 30.03 in /  1016.8 hPa Calm     95 % 0.01 in /  0.25 mm
03:26 68.0 °F /  20 °C 66.5 °F /  19.2 °C 30.03 in /  1016.8 hPa Calm     95 % 0.01 in /  0.25 mm
03:31 68.0 °F /  20 °C 66.5 °F /  19.2 °C 30.03 in /  1016.8 hPa Calm     95 % 0.01 in /  0.25 mm
03:36 68.1 °F /  20.1 °C 66.6 °F /  19.2 °C 30.03 in /  1016.8 hPa Calm   1.2 mph /  1.9 km/h 95 % 0.01 in /  0.25 mm
03:41 68.2 °F /  20.1 °C 67.0 °F /  19.4 °C 30.03 in /  1016.8 hPa Calm     96 % 0.01 in /  0.25 mm
03:46 68.3 °F /  20.2 °C 67.1 °F /  19.5 °C 30.03 in /  1016.8 hPa Calm     96 % 0.01 in /  0.25 mm
03:51 68.3 °F /  20.2 °C 67.1 °F /  19.5 °C 30.03 in /  1016.8 hPa Calm     96 % 0.01 in /  0.25 mm
03:56 68.4 °F /  20.2 °C 67.2 °F /  19.6 °C 30.03 in /  1016.8 hPa Calm     96 % 0.01 in /  0.25 mm
04:01 68.3 °F /  20.2 °C 67.1 °F /  19.5 °C 30.03 in /  1016.8 hPa Calm     96 % 0.00 in /  0 mm
04:06 68.3 °F /  20.2 °C 67.1 °F /  19.5 °C 30.03 in /  1016.8 hPa Calm     96 % 0.00 in /  0 mm
04:11 68.3 °F /  20.2 °C 67.1 °F /  19.5 °C 30.03 in /  1016.8 hPa Calm     96 % 0.00 in /  0 mm
04:16 68.3 °F /  20.2 °C 67.1 °F /  19.5 °C 30.03 in /  1016.8 hPa Calm     96 % 0.00 in /  0 mm
04:21 68.3 °F /  20.2 °C 67.1 °F /  19.5 °C 30.03 in /  1016.8 hPa Calm     96 % 0.00 in /  0 mm
04:26 68.3 °F /  20.2 °C 67.1 °F /  19.5 °C 30.04 in /  1017.2 hPa Calm     96 % 0.00 in /  0 mm
04:31 68.2 °F /  20.1 °C 67.0 °F /  19.4 °C 30.03 in /  1016.8 hPa Calm     96 % 0.00 in /  0 mm
04:36 68.2 °F /  20.1 °C 67.0 °F /  19.4 °C 30.03 in /  1016.8 hPa Calm     96 % 0.00 in /  0 mm
04:42 68.2 °F /  20.1 °C 66.7 °F /  19.3 °C 30.04 in /  1017.2 hPa Calm     95 % 0.00 in /  0 mm
04:47 68.1 °F /  20.1 °C 66.6 °F /  19.2 °C 30.04 in /  1017.2 hPa Calm     95 % 0.00 in /  0 mm
04:52 68.1 °F /  20.1 °C 66.6 °F /  19.2 °C 30.04 in /  1017.2 hPa Calm     95 % 0.00 in /  0 mm
04:57 68.1 °F /  20.1 °C 66.6 °F /  19.2 °C 30.04 in /  1017.2 hPa Calm     95 % 0.00 in /  0 mm
05:02 68.0 °F /  20 °C 66.5 °F /  19.2 °C 30.04 in /  1017.2 hPa Calm     95 % 0.00 in /  0 mm
05:07 68.0 °F /  20 °C 66.5 °F /  19.2 °C 30.04 in /  1017.2 hPa Calm     95 % 0.00 in /  0 mm
05:12 68.0 °F /  20 °C 66.5 °F /  19.2 °C 30.05 in /  1017.5 hPa Calm     95 % 0.00 in /  0 mm
05:17 68.0 °F /  20 °C 66.5 °F /  19.2 °C 30.05 in /  1017.5 hPa Calm     95 % 0.00 in /  0 mm
05:22 67.9 °F /  19.9 °C 66.4 °F /  19.1 °C 30.05 in /  1017.5 hPa Calm     95 % 0.00 in /  0 mm
05:27 67.9 °F /  19.9 °C 66.4 °F /  19.1 °C 30.05 in /  1017.5 hPa Calm     95 % 0.00 in /  0 mm
05:32 67.8 °F /  19.9 °C 66.3 °F /  19.1 °C 30.05 in /  1017.5 hPa Calm     95 % 0.00 in /  0 mm
05:37 67.8 °F /  19.9 °C 66.3 °F /  19.1 °C 30.05 in /  1017.5 hPa Calm     95 % 0.01 in /  0.25 mm
05:42 67.8 °F /  19.9 °C 66.3 °F /  19.1 °C 30.05 in /  1017.5 hPa Calm     95 % 0.01 in /  0.25 mm
05:47 67.7 °F /  19.8 °C 66.2 °F /  19 °C 30.05 in /  1017.5 hPa Calm     95 % 0.01 in /  0.25 mm
05:52 67.7 °F /  19.8 °C 66.2 °F /  19 °C 30.05 in /  1017.5 hPa Calm     95 % 0.01 in /  0.25 mm
05:57 67.6 °F /  19.8 °C 66.1 °F /  18.9 °C 30.05 in /  1017.5 hPa Calm     95 % 0.01 in /  0.25 mm
06:02 67.6 °F /  19.8 °C 66.1 °F /  18.9 °C 30.05 in /  1017.5 hPa Calm     95 % 0.01 in /  0.25 mm
06:07 67.6 °F /  19.8 °C 66.1 °F /  18.9 °C 30.05 in /  1017.5 hPa Calm     95 % 0.01 in /  0.25 mm
06:12 67.5 °F /  19.7 °C 66.0 °F /  18.9 °C 30.05 in /  1017.5 hPa Calm     95 % 0.01 in /  0.25 mm
06:17 67.5 °F /  19.7 °C 66.3 °F /  19.1 °C 30.05 in /  1017.5 hPa Calm     96 % 0.01 in /  0.25 mm
06:22 67.5 °F /  19.7 °C 66.3 °F /  19.1 °C 30.05 in /  1017.5 hPa Calm     96 % 0.01 in /  0.25 mm
06:27 67.6 °F /  19.8 °C 66.4 °F /  19.1 °C 30.05 in /  1017.5 hPa Calm     96 % 0.01 in /  0.25 mm
06:33 67.6 °F /  19.8 °C 66.4 °F /  19.1 °C 30.05 in /  1017.5 hPa Calm     96 % 0.01 in /  0.25 mm
06:38 67.6 °F /  19.8 °C 66.4 °F /  19.1 °C 30.05 in /  1017.5 hPa Calm     96 % 0.00 in /  0 mm
06:43 67.6 °F /  19.8 °C 66.4 °F /  19.1 °C 30.05 in /  1017.5 hPa Calm     96 % 0.00 in /  0 mm
06:48 67.6 °F /  19.8 °C 66.4 °F /  19.1 °C 30.06 in /  1017.8 hPa Calm     96 % 0.00 in /  0 mm
06:53 67.6 °F /  19.8 °C 66.4 °F /  19.1 °C 30.06 in /  1017.8 hPa Calm     96 % 0.00 in /  0 mm
06:58 67.6 °F /  19.8 °C 66.4 °F /  19.1 °C 30.06 in /  1017.8 hPa Calm     96 % 0.00 in /  0 mm
07:03 67.7 °F /  19.8 °C 66.5 °F /  19.2 °C 30.06 in /  1017.8 hPa Calm     96 % 0.00 in /  0 mm
07:08 67.8 °F /  19.9 °C 66.6 °F /  19.2 °C 30.06 in /  1017.8 hPa Calm     96 % 0.00 in /  0 mm
07:13 67.9 °F /  19.9 °C 66.7 °F /  19.3 °C 30.06 in /  1017.8 hPa Calm     96 % 0.00 in /  0 mm
07:18 68.1 °F /  20.1 °C 66.9 °F /  19.4 °C 30.07 in /  1018.2 hPa Calm     96 % 0.00 in /  0 mm
07:23 68.3 °F /  20.2 °C 67.1 °F /  19.5 °C 30.07 in /  1018.2 hPa Calm     96 % 0.00 in /  0 mm
07:28 68.4 °F /  20.2 °C 67.5 °F /  19.7 °C 30.07 in /  1018.2 hPa Calm     97 % 0.00 in /  0 mm
07:33 68.6 °F /  20.3 °C 67.7 °F /  19.8 °C 30.07 in /  1018.2 hPa Calm     97 % 0.00 in /  0 mm
07:38 68.9 °F /  20.5 °C 68.0 °F /  20 °C 30.07 in /  1018.2 hPa Calm     97 % 0.00 in /  0 mm
07:43 69.2 °F /  20.7 °C 68.3 °F /  20.2 °C 30.07 in /  1018.2 hPa Calm   1.2 mph /  1.9 km/h 97 % 0.00 in /  0 mm
07:48 69.7 °F /  20.9 °C 68.8 °F /  20.4 °C 30.07 in /  1018.2 hPa Calm     97 % 0.00 in /  0 mm
07:53 70.0 °F /  21.1 °C 69.1 °F /  20.6 °C 30.08 in /  1018.5 hPa Calm     97 % 0.00 in /  0 mm
07:58 70.2 °F /  21.2 °C 69.3 °F /  20.7 °C 30.08 in /  1018.5 hPa Calm     97 % 0.00 in /  0 mm
08:03 70.3 °F /  21.3 °C 69.4 °F /  20.8 °C 30.08 in /  1018.5 hPa Calm   1.0 mph /  1.6 km/h 97 % 0.00 in /  0 mm
08:08 70.5 °F /  21.4 °C 69.6 °F /  20.9 °C 30.08 in /  1018.5 hPa Calm   2.3 mph /  3.7 km/h 97 % 0.00 in /  0 mm
08:13 70.7 °F /  21.5 °C 69.8 °F /  21 °C 30.08 in /  1018.5 hPa Calm   1.2 mph /  1.9 km/h 97 % 0.00 in /  0 mm
08:18 70.8 °F /  21.6 °C 69.9 °F /  21.1 °C 30.08 in /  1018.5 hPa Calm     97 % 0.00 in /  0 mm
08:23 71.0 °F /  21.7 °C 70.1 °F /  21.2 °C 30.08 in /  1018.5 hPa Calm     97 % 0.00 in /  0 mm
08:28 71.2 °F /  21.8 °C 70.6 °F /  21.4 °C 30.08 in /  1018.5 hPa Calm     98 % 0.00 in /  0 mm
08:34 71.4 °F /  21.9 °C 70.5 °F /  21.4 °C 30.08 in /  1018.5 hPa WNW 1.6 mph /  2.6 km/h 2.3 mph /  3.7 km/h 97 % 0.00 in /  0 mm
08:39 71.6 °F /  22 °C 70.7 °F /  21.5 °C 30.08 in /  1018.5 hPa WNW 1.3 mph /  2.1 km/h 3.5 mph /  5.6 km/h 97 % 0.00 in /  0 mm
08:44 71.7 °F /  22.1 °C 70.8 °F /  21.6 °C 30.08 in /  1018.5 hPa WNW 0.2 mph /  0.3 km/h 1.2 mph /  1.9 km/h 97 % 0.00 in /  0 mm
08:49 71.7 °F /  22.1 °C 70.8 °F /  21.6 °C 30.08 in /  1018.5 hPa Calm     97 % 0.00 in /  0 mm
08:54 71.9 °F /  22.2 °C 71.0 °F /  21.7 °C 30.09 in /  1018.8 hPa NNE 3.4 mph /  5.5 km/h 4.6 mph /  7.4 km/h 97 % 0.00 in /  0 mm
08:59 72.1 °F /  22.3 °C 71.2 °F /  21.8 °C 30.09 in /  1018.8 hPa WNW 2.3 mph /  3.7 km/h 3.5 mph /  5.6 km/h 97 % 0.00 in /  0 mm
09:04 72.2 °F /  22.3 °C 71.3 °F /  21.8 °C 30.09 in /  1018.8 hPa North 2.4 mph /  3.9 km/h 3.5 mph /  5.6 km/h 97 % 0.00 in /  0 mm
09:09 72.2 °F /  22.3 °C 71.3 °F /  21.8 °C 30.09 in /  1018.8 hPa NNE 2.1 mph /  3.4 km/h 4.0 mph /  6.4 km/h 97 % 0.00 in /  0 mm
09:14 72.2 °F /  22.3 °C 71.0 °F /  21.7 °C 30.09 in /  1018.8 hPa NNE 1.7 mph /  2.7 km/h 3.5 mph /  5.6 km/h 96 % 0.00 in /  0 mm
09:19 72.3 °F /  22.4 °C 71.1 °F /  21.7 °C 30.09 in /  1018.8 hPa North 1.0 mph /  1.6 km/h 2.3 mph /  3.7 km/h 96 % 0.00 in /  0 mm
09:24 72.4 °F /  22.4 °C 71.2 °F /  21.8 °C 30.09 in /  1018.8 hPa North 3.2 mph /  5.1 km/h 4.0 mph /  6.4 km/h 96 % 0.00 in /  0 mm
09:29 72.5 °F /  22.5 °C 71.3 °F /  21.8 °C 30.09 in /  1018.8 hPa NNW 2.7 mph /  4.3 km/h 4.6 mph /  7.4 km/h 96 % 0.00 in /  0 mm
09:34 72.6 °F /  22.6 °C 71.4 °F /  21.9 °C 30.09 in /  1018.8 hPa NNE 3.2 mph /  5.1 km/h 4.6 mph /  7.4 km/h 96 % 0.00 in /  0 mm
09:39 72.8 °F /  22.7 °C 71.3 °F /  21.8 °C 30.09 in /  1018.8 hPa NNE 0.7 mph /  1.1 km/h 2.0 mph /  3.2 km/h 95 % 0.01 in /  0.25 mm
09:44 72.9 °F /  22.7 °C 71.4 °F /  21.9 °C 30.09 in /  1018.8 hPa North 0.9 mph /  1.4 km/h 3.5 mph /  5.6 km/h 95 % 0.01 in /  0.25 mm
09:49 73.1 °F /  22.8 °C 71.6 °F /  22 °C 30.09 in /  1018.8 hPa North 0.6 mph /  1 km/h 2.3 mph /  3.7 km/h 95 % 0.01 in /  0.25 mm
09:54 73.3 °F /  22.9 °C 71.8 °F /  22.1 °C 30.09 in /  1018.8 hPa North 0.7 mph /  1.1 km/h 2.3 mph /  3.7 km/h 95 % 0.01 in /  0.25 mm
09:59 73.6 °F /  23.1 °C 72.1 °F /  22.3 °C 30.09 in /  1018.8 hPa North 1.1 mph /  1.8 km/h 1.1 mph /  1.8 km/h 95 % 0.01 in /  0.25 mm
10:05 73.9 °F /  23.3 °C 72.4 °F /  22.4 °C 30.09 in /  1018.8 hPa North 2.1 mph /  3.4 km/h 3.0 mph /  4.8 km/h 95 % 0.01 in /  0.25 mm
10:10 74.5 °F /  23.6 °C 72.7 °F /  22.6 °C 30.09 in /  1018.8 hPa NE 2.1 mph /  3.4 km/h 3.5 mph /  5.6 km/h 94 % 0.01 in /  0.25 mm
10:15 75.2 °F /  24 °C 73.0 °F /  22.8 °C 30.09 in /  1018.8 hPa NE 2.3 mph /  3.7 km/h 7.0 mph /  11.3 km/h 93 % 0.01 in /  0.25 mm
10:20 76.2 °F /  24.6 °C 73.4 °F /  23 °C 30.09 in /  1018.8 hPa NE 1.7 mph /  2.7 km/h 3.0 mph /  4.8 km/h 91 % 0.01 in /  0.25 mm
10:25 77.0 °F /  25 °C 73.2 °F /  22.9 °C 30.09 in /  1018.8 hPa East 2.3 mph /  3.7 km/h 3.5 mph /  5.6 km/h 88 % 0.01 in /  0.25 mm
10:30 77.5 °F /  25.3 °C 73.0 °F /  22.8 °C 30.09 in /  1018.8 hPa NE 1.5 mph /  2.4 km/h 4.0 mph /  6.4 km/h 86 % 0.01 in /  0.25 mm
10:35 78.0 °F /  25.6 °C 72.8 °F /  22.7 °C 30.09 in /  1018.8 hPa NE 2.5 mph /  4 km/h 3.5 mph /  5.6 km/h 84 % 0.01 in /  0.25 mm
10:40 78.7 °F /  25.9 °C 73.5 °F /  23.1 °C 30.09 in /  1018.8 hPa NE 0.1 mph /  0.2 km/h 3.5 mph /  5.6 km/h 84 % 0.00 in /  0 mm
10:45 79.0 °F /  26.1 °C 73.4 °F /  23 °C 30.09 in /  1018.8 hPa NE 1.3 mph /  2.1 km/h 3.5 mph /  5.6 km/h 83 % 0.00 in /  0 mm
10:50 79.4 °F /  26.3 °C 73.4 °F /  23 °C 30.09 in /  1018.8 hPa North 1.3 mph /  2.1 km/h 2.3 mph /  3.7 km/h 82 % 0.00 in /  0 mm
10:55 80.1 °F /  26.7 °C 73.7 °F /  23.2 °C 30.09 in /  1018.8 hPa NNE 0.6 mph /  1 km/h 3.0 mph /  4.8 km/h 81 % 0.00 in /  0 mm
11:00 80.6 °F /  27 °C 73.9 °F /  23.3 °C 30.09 in /  1018.8 hPa NNE 0.2 mph /  0.3 km/h 2.3 mph /  3.7 km/h 80 % 0.00 in /  0 mm
11:05 81.3 °F /  27.4 °C 74.2 °F /  23.4 °C 30.09 in /  1018.8 hPa Calm   2.3 mph /  3.7 km/h 79 % 0.00 in /  0 mm
11:10 81.8 °F /  27.7 °C 74.3 °F /  23.5 °C 30.09 in /  1018.8 hPa NNE 2.5 mph /  4 km/h 3.5 mph /  5.6 km/h 78 % 0.00 in /  0 mm
11:15 82.1 °F /  27.8 °C 73.4 °F /  23 °C 30.08 in /  1018.5 hPa NE 2.5 mph /  4 km/h 3.0 mph /  4.8 km/h 75 % 0.00 in /  0 mm
11:20 82.3 °F /  27.9 °C 74.4 °F /  23.6 °C 30.08 in /  1018.5 hPa NNE 2.5 mph /  4 km/h 4.6 mph /  7.4 km/h 77 % 0.00 in /  0 mm
11:25 82.7 °F /  28.2 °C 74.8 °F /  23.8 °C 30.08 in /  1018.5 hPa North 2.4 mph /  3.9 km/h 5.0 mph /  8 km/h 77 % 0.00 in /  0 mm
11:31 82.9 °F /  28.3 °C 74.2 °F /  23.4 °C 30.08 in /  1018.5 hPa North 1.8 mph /  2.9 km/h 5.0 mph /  8 km/h 75 % 0.00 in /  0 mm
11:36 82.9 °F /  28.3 °C 73.8 °F /  23.2 °C 30.08 in /  1018.5 hPa NNE 3.0 mph /  4.8 km/h 7.0 mph /  11.3 km/h 74 % 0.00 in /  0 mm
11:41 83.1 °F /  28.4 °C 74.4 °F /  23.6 °C 30.08 in /  1018.5 hPa NNE 2.0 mph /  3.2 km/h 5.0 mph /  8 km/h 75 % 0.00 in /  0 mm
11:46 83.4 °F /  28.6 °C 74.2 °F /  23.4 °C 30.07 in /  1018.2 hPa NE 2.0 mph /  3.2 km/h 5.0 mph /  8 km/h 74 % 0.00 in /  0 mm
11:51 83.6 °F /  28.7 °C 74.8 °F /  23.8 °C 30.07 in /  1018.2 hPa NE 2.0 mph /  3.2 km/h 4.0 mph /  6.4 km/h 75 % 0.00 in /  0 mm
11:56 83.7 °F /  28.7 °C 74.1 °F /  23.4 °C 30.07 in /  1018.2 hPa NE 2.0 mph /  3.2 km/h 5.0 mph /  8 km/h 73 % 0.00 in /  0 mm
12:01 83.8 °F /  28.8 °C 75.0 °F /  23.9 °C 30.07 in /  1018.2 hPa NNE 0.2 mph /  0.3 km/h 2.3 mph /  3.7 km/h 75 % 0.00 in /  0 mm
12:06 84.2 °F /  29 °C 75.0 °F /  23.9 °C 30.07 in /  1018.2 hPa NNW 2.1 mph /  3.4 km/h 3.5 mph /  5.6 km/h 74 % 0.00 in /  0 mm
12:11 84.6 °F /  29.2 °C 75.0 °F /  23.9 °C 30.07 in /  1018.2 hPa NNE 2.5 mph /  4 km/h 4.6 mph /  7.4 km/h 73 % 0.00 in /  0 mm
12:16 84.7 °F /  29.3 °C 74.7 °F /  23.7 °C 30.07 in /  1018.2 hPa NE 0.9 mph /  1.4 km/h 3.5 mph /  5.6 km/h 72 % 0.00 in /  0 mm
12:21 84.8 °F /  29.3 °C 73.9 °F /  23.3 °C 30.07 in /  1018.2 hPa North 3.8 mph /  6.1 km/h 4.6 mph /  7.4 km/h 70 % 0.00 in /  0 mm
12:26 84.9 °F /  29.4 °C 73.6 °F /  23.1 °C 30.07 in /  1018.2 hPa North 2.7 mph /  4.3 km/h 4.6 mph /  7.4 km/h 69 % 0.00 in /  0 mm
12:31 84.9 °F /  29.4 °C 74.0 °F /  23.3 °C 30.07 in /  1018.2 hPa NNE 0.6 mph /  1 km/h 2.3 mph /  3.7 km/h 70 % 0.00 in /  0 mm
12:36 84.9 °F /  29.4 °C 73.6 °F /  23.1 °C 30.07 in /  1018.2 hPa NE 1.4 mph /  2.3 km/h 4.6 mph /  7.4 km/h 69 % 0.00 in /  0 mm
12:41 84.8 °F /  29.3 °C 73.5 °F /  23.1 °C 30.07 in /  1018.2 hPa NE 1.4 mph /  2.3 km/h 3.5 mph /  5.6 km/h 69 % 0.00 in /  0 mm
12:46 84.8 °F /  29.3 °C 73.1 °F /  22.8 °C 30.07 in /  1018.2 hPa ENE 2.1 mph /  3.4 km/h 3.5 mph /  5.6 km/h 68 % 0.00 in /  0 mm
12:51 84.9 °F /  29.4 °C 74.0 °F /  23.3 °C 30.07 in /  1018.2 hPa NE 0.9 mph /  1.4 km/h 2.3 mph /  3.7 km/h 70 % 0.00 in /  0 mm
12:56 85.0 °F /  29.4 °C 73.3 °F /  22.9 °C 30.06 in /  1017.8 hPa NE 1.4 mph /  2.3 km/h 2.3 mph /  3.7 km/h 68 % 0.00 in /  0 mm
13:01 85.1 °F /  29.5 °C 73.3 °F /  22.9 °C 30.06 in /  1017.8 hPa NE 1.8 mph /  2.9 km/h 3.5 mph /  5.6 km/h 68 % 0.00 in /  0 mm
13:06 84.9 °F /  29.4 °C 73.6 °F /  23.1 °C 30.07 in /  1018.2 hPa NNE 0.5 mph /  0.8 km/h 4.0 mph /  6.4 km/h 69 % 0.00 in /  0 mm
13:11 84.8 °F /  29.3 °C 72.6 °F /  22.6 °C 30.06 in /  1017.8 hPa ENE 2.7 mph /  4.3 km/h 4.6 mph /  7.4 km/h 67 % 0.00 in /  0 mm
13:16 84.9 °F /  29.4 °C 73.2 °F /  22.9 °C 30.06 in /  1017.8 hPa North 2.9 mph /  4.7 km/h 5.0 mph /  8 km/h 68 % 0.00 in /  0 mm
13:21 85.1 °F /  29.5 °C 74.2 °F /  23.4 °C 30.06 in /  1017.8 hPa NE 2.8 mph /  4.5 km/h 4.6 mph /  7.4 km/h 70 % 0.00 in /  0 mm
13:22 85.1 °F /  29.5 °C 72.9 °F /  22.7 °C 30.06 in /  1017.8 hPa NE 1.0 mph /  1.6 km/h 3.5 mph /  5.6 km/h 67 % 0.00 in /  0 mm
13:27 84.9 °F /  29.4 °C 72.7 °F /  22.6 °C 30.06 in /  1017.8 hPa ENE 2.8 mph /  4.5 km/h 3.5 mph /  5.6 km/h 67 % 0.00 in /  0 mm
13:32 84.7 °F /  29.3 °C 73.4 °F /  23 °C 30.06 in /  1017.8 hPa NE 1.4 mph /  2.3 km/h 3.5 mph /  5.6 km/h 69 % 0.01 in /  0.25 mm
13:37 84.5 °F /  29.2 °C 73.2 °F /  22.9 °C 30.06 in /  1017.8 hPa NE 1.4 mph /  2.3 km/h 5.8 mph /  9.3 km/h 69 % 0.01 in /  0.25 mm
13:42 84.5 °F /  29.2 °C 73.6 °F /  23.1 °C 30.06 in /  1017.8 hPa NNE 1.8 mph /  2.9 km/h 4.0 mph /  6.4 km/h 70 % 0.01 in /  0.25 mm
13:47 84.5 °F /  29.2 °C 72.3 °F /  22.4 °C 30.06 in /  1017.8 hPa NE 2.5 mph /  4 km/h 3.5 mph /  5.6 km/h 67 % 0.01 in /  0.25 mm
13:52 84.4 °F /  29.1 °C 73.1 °F /  22.8 °C 30.06 in /  1017.8 hPa NE 1.2 mph /  1.9 km/h 3.5 mph /  5.6 km/h 69 % 0.01 in /  0.25 mm
13:57 84.5 °F /  29.2 °C 73.6 °F /  23.1 °C 30.05 in /  1017.5 hPa ENE 2.1 mph /  3.4 km/h 3.0 mph /  4.8 km/h 70 % 0.01 in /  0.25 mm
14:02 84.2 °F /  29 °C 72.5 °F /  22.5 °C 30.05 in /  1017.5 hPa North 1.8 mph /  2.9 km/h 4.0 mph /  6.4 km/h 68 % 0.01 in /  0.25 mm
14:07 84.1 °F /  28.9 °C 72.8 °F /  22.7 °C 30.05 in /  1017.5 hPa ENE 0.8 mph /  1.3 km/h 3.0 mph /  4.8 km/h 69 % 0.01 in /  0.25 mm
14:12 83.9 °F /  28.8 °C 73.1 °F /  22.8 °C 30.05 in /  1017.5 hPa NE 1.7 mph /  2.7 km/h 5.8 mph /  9.3 km/h 70 % 0.01 in /  0.25 mm
14:13 83.9 °F /  28.8 °C 73.1 °F /  22.8 °C 30.05 in /  1017.5 hPa NE 0.5 mph /  0.8 km/h 3.5 mph /  5.6 km/h 70 % 0.01 in /  0.25 mm
14:18 84.1 °F /  28.9 °C 73.3 °F /  22.9 °C 30.05 in /  1017.5 hPa NE 0.8 mph /  1.3 km/h 3.5 mph /  5.6 km/h 70 % 0.01 in /  0.25 mm
14:23 84.2 °F /  29 °C 74.2 °F /  23.4 °C 30.05 in /  1017.5 hPa Calm   1.2 mph /  1.9 km/h 72 % 0.01 in /  0.25 mm
14:28 84.3 °F /  29.1 °C 73.4 °F /  23 °C 30.05 in /  1017.5 hPa NE 1.5 mph /  2.4 km/h 3.5 mph /  5.6 km/h 70 % 0.00 in /  0 mm
14:33 84.4 °F /  29.1 °C 73.1 °F /  22.8 °C 30.04 in /  1017.2 hPa NE 3.2 mph /  5.1 km/h 4.6 mph /  7.4 km/h 69 % 0.00 in /  0 mm
14:38 84.3 °F /  29.1 °C 73.4 °F /  23 °C 30.05 in /  1017.5 hPa NE 1.7 mph /  2.7 km/h 5.8 mph /  9.3 km/h 70 % 0.00 in /  0 mm
14:43 84.4 °F /  29.1 °C 73.1 °F /  22.8 °C 30.04 in /  1017.2 hPa NE 3.2 mph /  5.1 km/h 5.8 mph /  9.3 km/h 69 % 0.00 in /  0 mm
14:48 84.2 °F /  29 °C 72.5 °F /  22.5 °C 30.04 in /  1017.2 hPa ENE 2.3 mph /  3.7 km/h 4.6 mph /  7.4 km/h 68 % 0.00 in /  0 mm
14:53 83.7 °F /  28.7 °C 72.4 °F /  22.4 °C 30.04 in /  1017.2 hPa East 0.4 mph /  0.6 km/h 4.6 mph /  7.4 km/h 69 % 0.00 in /  0 mm
14:58 83.4 °F /  28.6 °C 73.0 °F /  22.8 °C 30.04 in /  1017.2 hPa NE 2.1 mph /  3.4 km/h 3.5 mph /  5.6 km/h 71 % 0.00 in /  0 mm
15:03 83.3 °F /  28.5 °C 73.7 °F /  23.2 °C 30.04 in /  1017.2 hPa NE 1.3 mph /  2.1 km/h 4.6 mph /  7.4 km/h 73 % 0.00 in /  0 mm
15:08 83.6 °F /  28.7 °C 74.8 °F /  23.8 °C 30.04 in /  1017.2 hPa NE 0.8 mph /  1.3 km/h 2.3 mph /  3.7 km/h 75 % 0.00 in /  0 mm
15:13 83.8 °F /  28.8 °C 74.2 °F /  23.4 °C 30.03 in /  1016.8 hPa NE 1.0 mph /  1.6 km/h 2.3 mph /  3.7 km/h 73 % 0.00 in /  0 mm
15:18 84.0 °F /  28.9 °C 73.6 °F /  23.1 °C 30.03 in /  1016.8 hPa NE 2.4 mph /  3.9 km/h 3.5 mph /  5.6 km/h 71 % 0.00 in /  0 mm
15:23 83.6 °F /  28.7 °C 73.2 °F /  22.9 °C 30.03 in /  1016.8 hPa ENE 0.8 mph /  1.3 km/h 4.6 mph /  7.4 km/h 71 % 0.00 in /  0 mm
15:29 83.5 °F /  28.6 °C 73.1 °F /  22.8 °C 30.02 in /  1016.5 hPa NE 0.9 mph /  1.4 km/h 3.5 mph /  5.6 km/h 71 % 0.00 in /  0 mm
15:34 83.6 °F /  28.7 °C 73.6 °F /  23.1 °C 30.02 in /  1016.5 hPa Calm   4.6 mph /  7.4 km/h 72 % 0.00 in /  0 mm
15:39 83.6 °F /  28.7 °C 74.0 °F /  23.3 °C 30.02 in /  1016.5 hPa ENE 0.2 mph /  0.3 km/h 1.2 mph /  1.9 km/h 73 % 0.00 in /  0 mm
15:44 84.0 °F /  28.9 °C 72.7 °F /  22.6 °C 30.02 in /  1016.5 hPa SSW 0.1 mph /  0.2 km/h 3.5 mph /  5.6 km/h 69 % 0.00 in /  0 mm
15:49 84.3 °F /  29.1 °C 72.1 °F /  22.3 °C 30.02 in /  1016.5 hPa SSW 2.4 mph /  3.9 km/h 4.0 mph /  6.4 km/h 67 % 0.00 in /  0 mm
15:54 84.8 °F /  29.3 °C 72.2 °F /  22.3 °C 30.02 in /  1016.5 hPa SE 0.6 mph /  1 km/h 2.3 mph /  3.7 km/h 66 % 0.00 in /  0 mm
15:59 85.2 °F /  29.6 °C 71.2 °F /  21.8 °C 30.02 in /  1016.5 hPa SE 2.1 mph /  3.4 km/h 3.5 mph /  5.6 km/h 63 % 0.00 in /  0 mm
16:04 85.3 °F /  29.6 °C 71.7 °F /  22.1 °C 30.02 in /  1016.5 hPa WSW 1.2 mph /  1.9 km/h 2.3 mph /  3.7 km/h 64 % 0.00 in /  0 mm
16:09 85.6 °F /  29.8 °C 72.5 °F /  22.5 °C 30.02 in /  1016.5 hPa SSE 1.6 mph /  2.6 km/h 3.5 mph /  5.6 km/h 65 % 0.00 in /  0 mm
16:14 85.5 °F /  29.7 °C 70.5 °F /  21.4 °C 30.01 in /  1016.1 hPa ESE 5.4 mph /  8.7 km/h 11.5 mph /  18.5 km/h 61 % 0.00 in /  0 mm
16:19 85.3 °F /  29.6 °C 71.3 °F /  21.8 °C 30.01 in /  1016.1 hPa SSE 4.9 mph /  7.9 km/h 8.1 mph /  13 km/h 63 % 0.00 in /  0 mm
16:24 84.9 °F /  29.4 °C 71.8 °F /  22.1 °C 30.01 in /  1016.1 hPa SE 0.2 mph /  0.3 km/h 2.0 mph /  3.2 km/h 65 % 0.00 in /  0 mm
16:29 84.8 °F /  29.3 °C 70.8 °F /  21.6 °C 30.01 in /  1016.1 hPa South 1.2 mph /  1.9 km/h 3.0 mph /  4.8 km/h 63 % 0.00 in /  0 mm
16:34 84.7 °F /  29.3 °C 70.2 °F /  21.2 °C 30.01 in /  1016.1 hPa WSW 1.7 mph /  2.7 km/h 3.5 mph /  5.6 km/h 62 % 0.00 in /  0 mm
16:39 84.7 °F /  29.3 °C 71.6 °F /  22 °C 30.01 in /  1016.1 hPa South 0.4 mph /  0.6 km/h 2.3 mph /  3.7 km/h 65 % 0.00 in /  0 mm
16:44 84.6 °F /  29.2 °C 72.0 °F /  22.2 °C 30.01 in /  1016.1 hPa SE 0.2 mph /  0.3 km/h 4.6 mph /  7.4 km/h 66 % 0.00 in /  0 mm
16:49 84.7 °F /  29.3 °C 73.0 °F /  22.8 °C 30.01 in /  1016.1 hPa WSW 1.6 mph /  2.6 km/h 3.0 mph /  4.8 km/h 68 % 0.00 in /  0 mm
16:54 84.8 °F /  29.3 °C 72.6 °F /  22.6 °C 30.01 in /  1016.1 hPa SE 1.4 mph /  2.3 km/h 5.0 mph /  8 km/h 67 % 0.00 in /  0 mm
16:59 84.8 °F /  29.3 °C 73.1 °F /  22.8 °C 30.01 in /  1016.1 hPa SSW 0.7 mph /  1.1 km/h 4.6 mph /  7.4 km/h 68 % 0.00 in /  0 mm
17:04 84.4 °F /  29.1 °C 72.2 °F /  22.3 °C 30.01 in /  1016.1 hPa SE 0.7 mph /  1.1 km/h 2.3 mph /  3.7 km/h 67 % 0.00 in /  0 mm
17:09 84.2 °F /  29 °C 72.5 °F /  22.5 °C 30.01 in /  1016.1 hPa South 4.6 mph /  7.4 km/h 6.9 mph /  11.1 km/h 68 % 0.00 in /  0 mm
17:14 83.8 °F /  28.8 °C 72.5 °F /  22.5 °C 30.01 in /  1016.1 hPa SSE 0.4 mph /  0.6 km/h 1.2 mph /  1.9 km/h 69 % 0.00 in /  0 mm
17:19 83.5 °F /  28.6 °C 72.7 °F /  22.6 °C 30.01 in /  1016.1 hPa SE 2.6 mph /  4.2 km/h 9.2 mph /  14.8 km/h 70 % 0.00 in /  0 mm
17:24 83.3 °F /  28.5 °C 72.5 °F /  22.5 °C 30.01 in /  1016.1 hPa South 0.6 mph /  1 km/h 2.3 mph /  3.7 km/h 70 % 0.00 in /  0 mm
17:29 82.9 °F /  28.3 °C 72.5 °F /  22.5 °C 30.01 in /  1016.1 hPa South 0.1 mph /  0.2 km/h 1.2 mph /  1.9 km/h 71 % 0.00 in /  0 mm
17:35 82.7 °F /  28.2 °C 72.3 °F /  22.4 °C 30.01 in /  1016.1 hPa SSE 0.9 mph /  1.4 km/h 5.8 mph /  9.3 km/h 71 % 0.00 in /  0 mm
17:40 82.3 °F /  27.9 °C 71.5 °F /  21.9 °C 30.01 in /  1016.1 hPa SSW 5.0 mph /  8 km/h 8.1 mph /  13 km/h 70 % 0.00 in /  0 mm
17:45 82.0 °F /  27.8 °C 71.2 °F /  21.8 °C 30.00 in /  1015.8 hPa SE 4.2 mph /  6.8 km/h 11.5 mph /  18.5 km/h 70 % 0.00 in /  0 mm
17:50 81.6 °F /  27.6 °C 70.9 °F /  21.6 °C 30.01 in /  1016.1 hPa SE 0.8 mph /  1.3 km/h 10.4 mph /  16.7 km/h 70 % 0.00 in /  0 mm
17:55 81.3 °F /  27.4 °C 71.0 °F /  21.7 °C 30.01 in /  1016.1 hPa SE 2.5 mph /  4 km/h 9.0 mph /  14.5 km/h 71 % 0.00 in /  0 mm
18:00 81.1 °F /  27.3 °C 70.4 °F /  21.3 °C 30.01 in /  1016.1 hPa SE 2.0 mph /  3.2 km/h 5.8 mph /  9.3 km/h 70 % 0.00 in /  0 mm
18:05 81.0 °F /  27.2 °C 70.7 °F /  21.5 °C 30.01 in /  1016.1 hPa SSE 0.8 mph /  1.3 km/h 2.3 mph /  3.7 km/h 71 % 0.00 in /  0 mm
18:10 81.0 °F /  27.2 °C 70.7 °F /  21.5 °C 30.01 in /  1016.1 hPa SE 1.6 mph /  2.6 km/h 4.6 mph /  7.4 km/h 71 % 0.00 in /  0 mm
18:15 80.9 °F /  27.2 °C 70.2 °F /  21.2 °C 30.01 in /  1016.1 hPa WNW 0.3 mph /  0.5 km/h 2.3 mph /  3.7 km/h 70 % 0.00 in /  0 mm
18:20 80.8 °F /  27.1 °C 70.1 °F /  21.2 °C 30.02 in /  1016.5 hPa SE 1.0 mph /  1.6 km/h 3.5 mph /  5.6 km/h 70 % 0.00 in /  0 mm
18:25 80.7 °F /  27.1 °C 70.4 °F /  21.3 °C 30.01 in /  1016.1 hPa SSE 2.7 mph /  4.3 km/h 7.0 mph /  11.3 km/h 71 % 0.00 in /  0 mm
18:26 80.7 °F /  27.1 °C 70.0 °F /  21.1 °C 30.01 in /  1016.1 hPa SSE 1.6 mph /  2.6 km/h 6.9 mph /  11.1 km/h 70 % 0.00 in /  0 mm
18:32 80.5 °F /  26.9 °C 69.8 °F /  21 °C 30.01 in /  1016.1 hPa SSW 1.6 mph /  2.6 km/h 3.5 mph /  5.6 km/h 70 % 0.00 in /  0 mm
18:37 80.2 °F /  26.8 °C 69.5 °F /  20.8 °C 30.01 in /  1016.1 hPa SSE 0.1 mph /  0.2 km/h 1.2 mph /  1.9 km/h 70 % 0.00 in /  0 mm
18:42 80.1 °F /  26.7 °C 69.8 °F /  21 °C 30.01 in /  1016.1 hPa Calm   6.9 mph /  11.1 km/h 71 % 0.00 in /  0 mm
18:47 79.9 °F /  26.6 °C 69.7 °F /  20.9 °C 30.02 in /  1016.5 hPa SE 2.5 mph /  4 km/h 7.0 mph /  11.3 km/h 71 % 0.00 in /  0 mm
18:52 79.5 °F /  26.4 °C 68.9 °F /  20.5 °C 30.01 in /  1016.1 hPa South 2.5 mph /  4 km/h 5.8 mph /  9.3 km/h 70 % 0.00 in /  0 mm
18:57 79.2 °F /  26.2 °C 68.1 °F /  20.1 °C 30.02 in /  1016.5 hPa SSW 0.1 mph /  0.2 km/h 3.5 mph /  5.6 km/h 69 % 0.00 in /  0 mm
19:02 79.0 °F /  26.1 °C 68.0 °F /  20 °C 30.02 in /  1016.5 hPa SE 1.1 mph /  1.8 km/h 4.0 mph /  6.4 km/h 69 % 0.00 in /  0 mm
19:07 78.8 °F /  26 °C 67.8 °F /  19.9 °C 30.02 in /  1016.5 hPa Calm   2.3 mph /  3.7 km/h 69 % 0.00 in /  0 mm
19:12 78.7 °F /  25.9 °C 68.5 °F /  20.3 °C 30.02 in /  1016.5 hPa ESE 0.2 mph /  0.3 km/h 1.2 mph /  1.9 km/h 71 % 0.00 in /  0 mm
19:17 78.6 °F /  25.9 °C 68.4 °F /  20.2 °C 30.03 in /  1016.8 hPa ESE 0.3 mph /  0.5 km/h 1.2 mph /  1.9 km/h 71 % 0.00 in /  0 mm
19:22 78.4 °F /  25.8 °C 68.2 °F /  20.1 °C 30.03 in /  1016.8 hPa SSW 0.8 mph /  1.3 km/h 2.3 mph /  3.7 km/h 71 % 0.00 in /  0 mm
19:27 78.2 °F /  25.7 °C 68.4 °F /  20.2 °C 30.03 in /  1016.8 hPa SSE 0.2 mph /  0.3 km/h 2.3 mph /  3.7 km/h 72 % 0.00 in /  0 mm
19:32 78.0 °F /  25.6 °C 68.6 °F /  20.3 °C 30.03 in /  1016.8 hPa SW 0.5 mph /  0.8 km/h 3.5 mph /  5.6 km/h 73 % 0.00 in /  0 mm
19:37 77.9 °F /  25.5 °C 68.9 °F /  20.5 °C 30.03 in /  1016.8 hPa Calm     74 % 0.00 in /  0 mm
19:41 77.7 °F /  25.4 °C 68.7 °F /  20.4 °C 30.04 in /  1017.2 hPa Calm   2.3 mph /  3.7 km/h 74 % 0.00 in /  0 mm
19:46 77.6 °F /  25.3 °C 69.0 °F /  20.6 °C 30.04 in /  1017.2 hPa Calm   7.0 mph /  11.3 km/h 75 % 0.00 in /  0 mm
19:51 77.5 °F /  25.3 °C 69.3 °F /  20.7 °C 30.04 in /  1017.2 hPa Calm   2.0 mph /  3.2 km/h 76 % 0.00 in /  0 mm
19:56 77.4 °F /  25.2 °C 69.2 °F /  20.7 °C 30.04 in /  1017.2 hPa Calm   2.0 mph /  3.2 km/h 76 % 0.00 in /  0 mm
20:00 77.1 °F /  25.1 °C 69.3 °F /  20.7 °C 30.04 in /  1017.2 hPa SSW 1.2 mph /  1.9 km/h 3.5 mph /  5.6 km/h 77 % 0.00 in /  0 mm
20:06 77.0 °F /  25 °C 69.6 °F /  20.9 °C 30.05 in /  1017.5 hPa Calm   3.5 mph /  5.6 km/h 78 % 0.00 in /  0 mm
20:11 76.8 °F /  24.9 °C 69.4 °F /  20.8 °C 30.05 in /  1017.5 hPa SE 1.3 mph /  2.1 km/h 6.0 mph /  9.7 km/h 78 % 0.00 in /  0 mm
20:16 76.6 °F /  24.8 °C 69.2 °F /  20.7 °C 30.04 in /  1017.2 hPa SSE 0.4 mph /  0.6 km/h 3.5 mph /  5.6 km/h 78 % 0.00 in /  0 mm
20:21 76.4 °F /  24.7 °C 69.0 °F /  20.6 °C 30.04 in /  1017.2 hPa SSE 0.5 mph /  0.8 km/h 1.2 mph /  1.9 km/h 78 % 0.00 in /  0 mm
20:26 76.4 °F /  24.7 °C 69.0 °F /  20.6 °C 30.04 in /  1017.2 hPa Calm   1.2 mph /  1.9 km/h 78 % 0.00 in /  0 mm
20:31 76.2 °F /  24.6 °C 68.8 °F /  20.4 °C 30.04 in /  1017.2 hPa Calm   1.0 mph /  1.6 km/h 78 % 0.00 in /  0 mm
20:36 76.0 °F /  24.4 °C 68.6 °F /  20.3 °C 30.04 in /  1017.2 hPa SE 0.6 mph /  1 km/h 3.0 mph /  4.8 km/h 78 % 0.00 in /  0 mm
20:41 75.9 °F /  24.4 °C 68.5 °F /  20.3 °C 30.04 in /  1017.2 hPa SE 0.2 mph /  0.3 km/h 1.2 mph /  1.9 km/h 78 % 0.00 in /  0 mm
20:46 75.8 °F /  24.3 °C 68.4 °F /  20.2 °C 30.04 in /  1017.2 hPa SE 0.4 mph /  0.6 km/h 2.3 mph /  3.7 km/h 78 % 0.00 in /  0 mm
20:51 75.6 °F /  24.2 °C 68.3 °F /  20.2 °C 30.04 in /  1017.2 hPa SE 1.7 mph /  2.7 km/h 3.0 mph /  4.8 km/h 78 % 0.00 in /  0 mm
20:56 75.5 °F /  24.2 °C 68.2 °F /  20.1 °C 30.04 in /  1017.2 hPa Calm   1.2 mph /  1.9 km/h 78 % 0.00 in /  0 mm
21:01 75.4 °F /  24.1 °C 68.1 °F /  20.1 °C 30.05 in /  1017.5 hPa WSW 1.6 mph /  2.6 km/h 3.5 mph /  5.6 km/h 78 % 0.00 in /  0 mm
21:06 75.3 °F /  24.1 °C 68.3 °F /  20.2 °C 30.05 in /  1017.5 hPa Calm     79 % 0.00 in /  0 mm
21:11 75.3 °F /  24.1 °C 68.3 °F /  20.2 °C 30.05 in /  1017.5 hPa SE 1.5 mph /  2.4 km/h 3.5 mph /  5.6 km/h 79 % 0.00 in /  0 mm
21:16 75.1 °F /  23.9 °C 68.1 °F /  20.1 °C 30.05 in /  1017.5 hPa Calm     79 % 0.00 in /  0 mm
21:21 75.1 °F /  23.9 °C 68.1 °F /  20.1 °C 30.05 in /  1017.5 hPa SE 0.7 mph /  1.1 km/h 2.0 mph /  3.2 km/h 79 % 0.00 in /  0 mm
21:26 75.1 °F /  23.9 °C 68.1 °F /  20.1 °C 30.05 in /  1017.5 hPa SE 1.1 mph /  1.8 km/h 3.0 mph /  4.8 km/h 79 % 0.00 in /  0 mm
21:31 74.9 °F /  23.8 °C 68.3 °F /  20.2 °C 30.05 in /  1017.5 hPa SE 1.6 mph /  2.6 km/h 3.5 mph /  5.6 km/h 80 % 0.00 in /  0 mm
21:36 74.8 °F /  23.8 °C 68.2 °F /  20.1 °C 30.05 in /  1017.5 hPa SE 0.9 mph /  1.4 km/h 2.3 mph /  3.7 km/h 80 % 0.00 in /  0 mm
21:42 74.7 °F /  23.7 °C 68.5 °F /  20.3 °C 30.05 in /  1017.5 hPa Calm   1.2 mph /  1.9 km/h 81 % 0.00 in /  0 mm
21:47 74.6 °F /  23.7 °C 68.4 °F /  20.2 °C 30.06 in /  1017.8 hPa Calm   3.5 mph /  5.6 km/h 81 % 0.00 in /  0 mm
21:52 74.5 °F /  23.6 °C 68.6 °F /  20.3 °C 30.06 in /  1017.8 hPa SE 0.8 mph /  1.3 km/h 3.5 mph /  5.6 km/h 82 % 0.00 in /  0 mm
21:57 74.4 °F /  23.6 °C 68.5 °F /  20.3 °C 30.05 in /  1017.5 hPa SE 1.2 mph /  1.9 km/h 4.0 mph /  6.4 km/h 82 % 0.00 in /  0 mm
22:02 74.4 °F /  23.6 °C 68.5 °F /  20.3 °C 30.06 in /  1017.8 hPa SE 0.1 mph /  0.2 km/h 1.2 mph /  1.9 km/h 82 % 0.00 in /  0 mm
22:07 74.3 °F /  23.5 °C 68.4 °F /  20.2 °C 30.05 in /  1017.5 hPa SE 2.1 mph /  3.4 km/h 4.6 mph /  7.4 km/h 82 % 0.00 in /  0 mm
22:12 74.3 °F /  23.5 °C 68.8 °F /  20.4 °C 30.05 in /  1017.5 hPa SE 1.1 mph /  1.8 km/h 4.0 mph /  6.4 km/h 83 % 0.00 in /  0 mm
22:17 74.3 °F /  23.5 °C 68.8 °F /  20.4 °C 30.05 in /  1017.5 hPa Calm   3.5 mph /  5.6 km/h 83 % 0.00 in /  0 mm
22:22 74.3 °F /  23.5 °C 68.8 °F /  20.4 °C 30.05 in /  1017.5 hPa SE 1.7 mph /  2.7 km/h 5.0 mph /  8 km/h 83 % 0.00 in /  0 mm
22:27 74.3 °F /  23.5 °C 69.1 °F /  20.6 °C 30.05 in /  1017.5 hPa SSE 0.1 mph /  0.2 km/h 1.2 mph /  1.9 km/h 84 % 0.00 in /  0 mm
22:32 74.3 °F /  23.5 °C 69.1 °F /  20.6 °C 30.05 in /  1017.5 hPa SE 1.2 mph /  1.9 km/h 3.5 mph /  5.6 km/h 84 % 0.00 in /  0 mm
22:37 74.4 °F /  23.6 °C 69.2 °F /  20.7 °C 30.05 in /  1017.5 hPa Calm     84 % 0.00 in /  0 mm
22:42 74.4 °F /  23.6 °C 69.2 °F /  20.7 °C 30.05 in /  1017.5 hPa SE 0.3 mph /  0.5 km/h 1.2 mph /  1.9 km/h 84 % 0.00 in /  0 mm
22:47 74.4 °F /  23.6 °C 69.6 °F /  20.9 °C 30.05 in /  1017.5 hPa Calm     85 % 0.00 in /  0 mm
22:52 74.4 °F /  23.6 °C 69.6 °F /  20.9 °C 30.05 in /  1017.5 hPa SE 0.4 mph /  0.6 km/h 3.0 mph /  4.8 km/h 85 % 0.00 in /  0 mm
22:57 74.4 °F /  23.6 °C 69.6 °F /  20.9 °C 30.05 in /  1017.5 hPa SSE 0.1 mph /  0.2 km/h 1.2 mph /  1.9 km/h 85 % 0.00 in /  0 mm
23:02 74.4 °F /  23.6 °C 69.6 °F /  20.9 °C 30.05 in /  1017.5 hPa Calm   1.2 mph /  1.9 km/h 85 % 0.00 in /  0 mm
23:07 74.4 °F /  23.6 °C 69.9 °F /  21.1 °C 30.05 in /  1017.5 hPa SSE 0.3 mph /  0.5 km/h 1.2 mph /  1.9 km/h 86 % 0.00 in /  0 mm
23:12 74.5 °F /  23.6 °C 70.0 °F /  21.1 °C 30.04 in /  1017.2 hPa Calm     86 % 0.00 in /  0 mm
23:17 74.5 °F /  23.6 °C 70.0 °F /  21.1 °C 30.05 in /  1017.5 hPa Calm   1.2 mph /  1.9 km/h 86 % 0.00 in /  0 mm
23:21 74.5 °F /  23.6 °C 70.4 °F /  21.3 °C 30.04 in /  1017.2 hPa SSE 0.2 mph /  0.3 km/h 1.2 mph /  1.9 km/h 87 % 0.00 in /  0 mm
23:22 74.5 °F /  23.6 °C 70.4 °F /  21.3 °C 30.04 in /  1017.2 hPa SSE 0.4 mph /  0.6 km/h 1.2 mph /  1.9 km/h 87 % 0.00 in /  0 mm
23:25 74.5 °F /  23.6 °C 70.4 °F /  21.3 °C 30.04 in /  1017.2 hPa Calm   1.2 mph /  1.9 km/h 87 % 0.00 in /  0 mm
23:26 74.5 °F /  23.6 °C 70.4 °F /  21.3 °C 30.04 in /  1017.2 hPa Calm   1.2 mph /  1.9 km/h 87 % 0.00 in /  0 mm
23:31 74.6 °F /  23.7 °C 70.5 °F /  21.4 °C 30.03 in /  1016.8 hPa SE 0.7 mph /  1.1 km/h 3.5 mph /  5.6 km/h 87 % 0.00 in /  0 mm
23:36 74.6 °F /  23.7 °C 70.5 °F /  21.4 °C 30.03 in /  1016.8 hPa SE 0.1 mph /  0.2 km/h 3.0 mph /  4.8 km/h 87 % 0.00 in /  0 mm
23:41 74.6 °F /  23.7 °C 70.5 °F /  21.4 °C 30.03 in /  1016.8 hPa SE 0.5 mph /  0.8 km/h 4.0 mph /  6.4 km/h 87 % 0.00 in /  0 mm
23:46 74.6 °F /  23.7 °C 70.5 °F /  21.4 °C 30.03 in /  1016.8 hPa Calm   1.2 mph /  1.9 km/h 87 % 0.00 in /  0 mm
23:51 74.5 °F /  23.6 °C 70.7 °F /  21.5 °C 30.03 in /  1016.8 hPa Calm   1.2 mph /  1.9 km/h 88 % 0.00 in /  0 mm
23:56 74.5 °F /  23.6 °C 70.7 °F /  21.5 °C 30.03 in /  1016.8 hPa SSE 0.3 mph /  0.5 km/h 1.2 mph /  1.9 km/h 88 % 0.00 in /  0 mm
Crab Meadow Weather
Compliments of Weather Underground - 3.25 mb

Script developed by  Jim McMurry - jmcmurry@mwt.net Adapted for the template by  Wim van der Kuil - Leuven-Template.eu

Astronomy: Pluto is not a planet, because it does not have a fixed orbit and it's orbit comes in between the orbit of another planet (Neptune).